Strona główna
METAR-TAF:

METAR-TAF

Lotnisko :

Minot, Dakota Północna, Stany Zjednoczone

Szerokość geograficzna: 48-25N, Długość geograficzna: 101-21W, wysokość: 508 m

Aktualna obserwacja pogody

Raport powstał 1 godzina i 8 minut temu, godzina 04:56 UTC
Wiatr 4 kt od zachodnio-południowy zachód
Temperatura 17°C
Wilgotność 63%
Ciśnienie 1009 hPa
Widzialność: 16.1 km
Przerywane chmury na wysokości 15000 ft

METAR: KMIB 200456Z AUTO 24004KT 10SM BKN150 17/10 A2980 RMK AO2 SLP093 T01650099 $

czas: 01:04 (06:04 UTC)

Prognoza

Raport powstał 13 godziny i 4 minut temu, godzina 17:00 UTC
Prognoza ważna od 19 godzina 17 UTC do 20 godzina 23 UTC
Wiatr 15 kt od zachodnio-północny zachód w porywach dochodzący do 20 kt
Widzialność 10 km lub więcej
bezchmurnie
Stopniowe zmiany
od 20 godzina 00 UTC do 20 godzina 01 UTC
Wiatr 9 kt od zachód
Widzialność: 2909 m
Mało chmury na wysokości 15000 ft

TAF: KMIB 191700Z 1917/2023 29015G20KT 9999 SKC QNH2976INS BECMG 2000/2001 28009KT 9999 FEW150 QNH2980INS TX25/1922Z TN12/2011Z LAST NO AMDS AFT 1917 NEXT 2909

Obserwacja i prognoza pogody dla ponad 4000 lotnisk (raport METAR i TAF).

Dostępne stacje oznaczono żółtymi i czerwonymi punktami na mapie.

Najedź kursorem aby zobaczyć nazwę stacji.

Kliknij aby zobaczyć obserwacje i prognozy pogody.

Aby zmienić mapę: kliknij na zielony przycisk z czarnym krzyżykiem, aby powiększyć; na zielony przycisk z myślnikiem, aby pomniejszyć; na zielone strzałki, aby przejść do map sąsiednich.


METAR-TAF: